sensor_id;sensor_type;location;lat;lon;timestamp;P1;durP1;ratioP1;P2;durP2;ratioP2
81544;SDS011;70990;50.618;7.346;2023-08-07T00:00:10;6.30;;;1.75;;
81544;SDS011;70990;50.618;7.346;2023-08-07T00:02:37;9.15;;;1.83;;
81544;SDS011;70990;50.618;7.346;2023-08-07T00:05:05;14.13;;;2.22;;
81544;SDS011;70990;50.618;7.346;2023-08-07T00:07:32;7.90;;;2.42;;
81544;SDS011;70990;50.618;7.346;2023-08-07T00:09:58;5.65;;;1.85;;
81544;SDS011;70990;50.618;7.346;2023-08-07T00:12:25;10.07;;;2.10;;
81544;SDS011;70990;50.618;7.346;2023-08-07T00:14:51;7.13;;;1.80;;
81544;SDS011;70990;50.618;7.346;2023-08-07T00:17:18;8.88;;;1.98;;
81544;SDS011;70990;50.618;7.346;2023-08-07T00:19:44;6.55;;;1.48;;
81544;SDS011;70990;50.618;7.346;2023-08-07T00:22:11;10.48;;;2.50;;
81544;SDS011;70990;50.618;7.346;2023-08-07T00:24:37;9.13;;;2.00;;
81544;SDS011;70990;50.618;7.346;2023-08-07T00:27:04;6.82;;;2.05;;
81544;SDS011;70990;50.618;7.346;2023-08-07T00:29:30;28.70;;;2.83;;
81544;SDS011;70990;50.618;7.346;2023-08-07T00:31:58;6.05;;;1.60;;
81544;SDS011;70990;50.618;7.346;2023-08-07T00:34:25;7.25;;;1.63;;
81544;SDS011;70990;50.618;7.346;2023-08-07T00:36:51;11.18;;;1.67;;
81544;SDS011;70990;50.618;7.346;2023-08-07T00:39:17;6.50;;;1.80;;
81544;SDS011;70990;50.618;7.346;2023-08-07T00:41:44;6.85;;;1.38;;
81544;SDS011;70990;50.618;7.346;2023-08-07T00:44:11;5.88;;;1.48;;
81544;SDS011;70990;50.618;7.346;2023-08-07T00:46:37;7.75;;;2.55;;
81544;SDS011;70990;50.618;7.346;2023-08-07T00:49:05;10.05;;;2.15;;
81544;SDS011;70990;50.618;7.346;2023-08-07T00:51:32;13.23;;;3.25;;
81544;SDS011;70990;50.618;7.346;2023-08-07T00:53:59;4.82;;;1.60;;
81544;SDS011;70990;50.618;7.346;2023-08-07T00:56:28;7.75;;;1.67;;
81544;SDS011;70990;50.618;7.346;2023-08-07T00:58:56;9.50;;;1.90;;
81544;SDS011;70990;50.618;7.346;2023-08-07T01:01:24;8.43;;;2.03;;
81544;SDS011;70990;50.618;7.346;2023-08-07T01:03:51;16.45;;;2.50;;
81544;SDS011;70990;50.618;7.346;2023-08-07T01:06:18;11.73;;;2.17;;
81544;SDS011;70990;50.618;7.346;2023-08-07T01:08:46;10.27;;;2.05;;
81544;SDS011;70990;50.618;7.346;2023-08-07T01:19:30;6.32;;;1.90;;
81544;SDS011;70990;50.618;7.346;2023-08-07T01:24:39;13.73;;;2.58;;
81544;SDS011;70990;50.618;7.346;2023-08-07T01:29:54;6.13;;;1.92;;
81544;SDS011;70990;50.618;7.346;2023-08-07T01:32:28;5.13;;;2.08;;
81544;SDS011;70990;50.618;7.346;2023-08-07T01:35:01;7.43;;;2.47;;
81544;SDS011;70990;50.618;7.346;2023-08-07T01:37:29;8.60;;;2.40;;
81544;SDS011;70990;50.618;7.346;2023-08-07T01:40:01;7.25;;;1.63;;
81544;SDS011;70990;50.618;7.346;2023-08-07T01:42:28;5.95;;;1.08;;
81544;SDS011;70990;50.618;7.346;2023-08-07T01:44:55;9.05;;;1.80;;
81544;SDS011;70990;50.618;7.346;2023-08-07T01:47:23;6.50;;;1.90;;
81544;SDS011;70990;50.618;7.346;2023-08-07T01:49:49;12.45;;;2.45;;
81544;SDS011;70990;50.618;7.346;2023-08-07T01:52:16;8.00;;;2.10;;
81544;SDS011;70990;50.618;7.346;2023-08-07T01:54:43;3.85;;;1.65;;
81544;SDS011;70990;50.618;7.346;2023-08-07T01:57:09;12.65;;;3.38;;
81544;SDS011;70990;50.618;7.346;2023-08-07T01:59:36;3.15;;;1.00;;
81544;SDS011;70990;50.618;7.346;2023-08-07T02:02:02;9.55;;;2.22;;
81544;SDS011;70990;50.618;7.346;2023-08-07T02:04:29;8.02;;;2.20;;
81544;SDS011;70990;50.618;7.346;2023-08-07T02:06:55;10.52;;;2.28;;
81544;SDS011;70990;50.618;7.346;2023-08-07T02:09:22;11.52;;;2.25;;
81544;SDS011;70990;50.618;7.346;2023-08-07T02:11:49;11.82;;;2.30;;
81544;SDS011;70990;50.618;7.346;2023-08-07T02:14:15;5.57;;;1.80;;
81544;SDS011;70990;50.618;7.346;2023-08-07T02:16:42;7.07;;;2.03;;
81544;SDS011;70990;50.618;7.346;2023-08-07T02:19:08;11.10;;;2.55;;
81544;SDS011;70990;50.618;7.346;2023-08-07T02:21:35;12.73;;;2.33;;
81544;SDS011;70990;50.618;7.346;2023-08-07T02:24:02;8.50;;;1.70;;
81544;SDS011;70990;50.618;7.346;2023-08-07T02:26:28;7.22;;;1.88;;
81544;SDS011;70990;50.618;7.346;2023-08-07T02:28:55;5.93;;;1.63;;
81544;SDS011;70990;50.618;7.346;2023-08-07T02:31:21;8.02;;;1.85;;
81544;SDS011;70990;50.618;7.346;2023-08-07T02:33:48;7.88;;;2.22;;
81544;SDS011;70990;50.618;7.346;2023-08-07T02:36:14;7.38;;;1.92;;
81544;SDS011;70990;50.618;7.346;2023-08-07T02:38:41;6.40;;;1.95;;
81544;SDS011;70990;50.618;7.346;2023-08-07T02:41:07;4.75;;;1.73;;
81544;SDS011;70990;50.618;7.346;2023-08-07T02:43:33;11.70;;;2.20;;
81544;SDS011;70990;50.618;7.346;2023-08-07T02:46:00;11.98;;;2.20;;
81544;SDS011;70990;50.618;7.346;2023-08-07T02:48:27;12.13;;;2.28;;
81544;SDS011;70990;50.618;7.346;2023-08-07T02:50:53;5.78;;;2.00;;
81544;SDS011;70990;50.618;7.346;2023-08-07T02:53:19;9.73;;;2.22;;
81544;SDS011;70990;50.618;7.346;2023-08-07T02:55:46;12.48;;;2.83;;
81544;SDS011;70990;50.618;7.346;2023-08-07T02:58:13;5.90;;;2.00;;
81544;SDS011;70990;50.618;7.346;2023-08-07T03:00:39;8.52;;;3.15;;
81544;SDS011;70990;50.618;7.346;2023-08-07T03:03:06;10.77;;;2.30;;
81544;SDS011;70990;50.618;7.346;2023-08-07T03:05:33;11.25;;;2.85;;
81544;SDS011;70990;50.618;7.346;2023-08-07T03:07:59;9.93;;;2.75;;
81544;SDS011;70990;50.618;7.346;2023-08-07T03:10:26;12.15;;;3.72;;
81544;SDS011;70990;50.618;7.346;2023-08-07T03:12:54;12.05;;;3.58;;
81544;SDS011;70990;50.618;7.346;2023-08-07T03:15:20;12.63;;;3.95;;
81544;SDS011;70990;50.618;7.346;2023-08-07T03:17:47;14.95;;;4.20;;
81544;SDS011;70990;50.618;7.346;2023-08-07T03:20:13;13.07;;;5.60;;
81544;SDS011;70990;50.618;7.346;2023-08-07T03:22:40;16.90;;;6.28;;
81544;SDS011;70990;50.618;7.346;2023-08-07T03:25:07;16.92;;;6.80;;
81544;SDS011;70990;50.618;7.346;2023-08-07T03:27:33;13.77;;;6.28;;
81544;SDS011;70990;50.618;7.346;2023-08-07T03:30:00;17.88;;;7.35;;
81544;SDS011;70990;50.618;7.346;2023-08-07T03:32:29;13.85;;;6.55;;
81544;SDS011;70990;50.618;7.346;2023-08-07T03:34:56;15.27;;;6.68;;
81544;SDS011;70990;50.618;7.346;2023-08-07T03:37:23;13.38;;;6.78;;
81544;SDS011;70990;50.618;7.346;2023-08-07T03:39:49;12.15;;;4.72;;
81544;SDS011;70990;50.618;7.346;2023-08-07T03:42:16;14.70;;;5.13;;
81544;SDS011;70990;50.618;7.346;2023-08-07T03:44:44;11.55;;;4.78;;
81544;SDS011;70990;50.618;7.346;2023-08-07T03:47:11;10.50;;;4.03;;
81544;SDS011;70990;50.618;7.346;2023-08-07T03:49:37;8.93;;;4.22;;
81544;SDS011;70990;50.618;7.346;2023-08-07T03:52:04;9.63;;;3.60;;
81544;SDS011;70990;50.618;7.346;2023-08-07T03:54:31;12.20;;;4.25;;
81544;SDS011;70990;50.618;7.346;2023-08-07T03:56:58;16.30;;;3.72;;
81544;SDS011;70990;50.618;7.346;2023-08-07T03:59:25;11.73;;;3.60;;
81544;SDS011;70990;50.618;7.346;2023-08-07T04:01:52;9.02;;;2.58;;
81544;SDS011;70990;50.618;7.346;2023-08-07T04:04:18;6.88;;;2.85;;
81544;SDS011;70990;50.618;7.346;2023-08-07T04:06:45;14.65;;;2.95;;
81544;SDS011;70990;50.618;7.346;2023-08-07T04:09:13;9.55;;;2.83;;
81544;SDS011;70990;50.618;7.346;2023-08-07T04:11:40;6.53;;;2.42;;
81544;SDS011;70990;50.618;7.346;2023-08-07T04:14:06;9.95;;;2.95;;
81544;SDS011;70990;50.618;7.346;2023-08-07T04:16:33;16.33;;;2.80;;
81544;SDS011;70990;50.618;7.346;2023-08-07T04:18:59;5.72;;;2.55;;
81544;SDS011;70990;50.618;7.346;2023-08-07T04:21:26;9.18;;;3.13;;
81544;SDS011;70990;50.618;7.346;2023-08-07T04:23:53;8.82;;;2.17;;
81544;SDS011;70990;50.618;7.346;2023-08-07T04:26:19;7.75;;;2.58;;
81544;SDS011;70990;50.618;7.346;2023-08-07T04:28:46;9.90;;;3.65;;
81544;SDS011;70990;50.618;7.346;2023-08-07T04:31:12;13.48;;;3.55;;
81544;SDS011;70990;50.618;7.346;2023-08-07T04:33:39;10.65;;;3.50;;
81544;SDS011;70990;50.618;7.346;2023-08-07T04:36:05;9.88;;;3.20;;
81544;SDS011;70990;50.618;7.346;2023-08-07T04:38:32;7.80;;;3.13;;
81544;SDS011;70990;50.618;7.346;2023-08-07T04:40:58;12.85;;;3.67;;
81544;SDS011;70990;50.618;7.346;2023-08-07T04:43:25;9.60;;;2.90;;
81544;SDS011;70990;50.618;7.346;2023-08-07T04:45:52;8.60;;;3.38;;
81544;SDS011;70990;50.618;7.346;2023-08-07T04:48:19;7.07;;;2.90;;
81544;SDS011;70990;50.618;7.346;2023-08-07T04:50:48;6.95;;;3.13;;
81544;SDS011;70990;50.618;7.346;2023-08-07T04:53:15;8.80;;;3.17;;
81544;SDS011;70990;50.618;7.346;2023-08-07T04:55:42;13.13;;;3.40;;
81544;SDS011;70990;50.618;7.346;2023-08-07T04:58:09;10.07;;;3.42;;
81544;SDS011;70990;50.618;7.346;2023-08-07T05:00:35;12.02;;;3.50;;
81544;SDS011;70990;50.618;7.346;2023-08-07T05:03:02;7.85;;;2.30;;
81544;SDS011;70990;50.618;7.346;2023-08-07T05:05:29;11.52;;;2.20;;
81544;SDS011;70990;50.618;7.346;2023-08-07T05:07:57;7.93;;;2.90;;
81544;SDS011;70990;50.618;7.346;2023-08-07T05:10:24;10.10;;;2.17;;
81544;SDS011;70990;50.618;7.346;2023-08-07T05:12:51;9.63;;;2.42;;
81544;SDS011;70990;50.618;7.346;2023-08-07T05:15:17;6.15;;;1.60;;
81544;SDS011;70990;50.618;7.346;2023-08-07T05:17:43;13.85;;;3.08;;
81544;SDS011;70990;50.618;7.346;2023-08-07T05:20:10;10.13;;;3.05;;
81544;SDS011;70990;50.618;7.346;2023-08-07T05:22:37;9.43;;;2.80;;
81544;SDS011;70990;50.618;7.346;2023-08-07T05:25:04;7.47;;;2.78;;
81544;SDS011;70990;50.618;7.346;2023-08-07T05:27:30;7.38;;;2.63;;
81544;SDS011;70990;50.618;7.346;2023-08-07T05:29:57;7.82;;;2.55;;
81544;SDS011;70990;50.618;7.346;2023-08-07T05:32:25;4.55;;;1.98;;
81544;SDS011;70990;50.618;7.346;2023-08-07T05:34:52;6.60;;;2.40;;
81544;SDS011;70990;50.618;7.346;2023-08-07T05:37:19;8.18;;;2.42;;
81544;SDS011;70990;50.618;7.346;2023-08-07T05:39:46;10.65;;;2.28;;
81544;SDS011;70990;50.618;7.346;2023-08-07T05:42:12;10.30;;;2.47;;
81544;SDS011;70990;50.618;7.346;2023-08-07T05:44:38;7.38;;;2.10;;
81544;SDS011;70990;50.618;7.346;2023-08-07T05:47:05;7.72;;;2.38;;
81544;SDS011;70990;50.618;7.346;2023-08-07T05:49:32;5.20;;;1.77;;
81544;SDS011;70990;50.618;7.346;2023-08-07T05:51:59;7.07;;;2.20;;
81544;SDS011;70990;50.618;7.346;2023-08-07T05:54:25;7.13;;;2.60;;
81544;SDS011;70990;50.618;7.346;2023-08-07T05:56:54;9.45;;;2.28;;
81544;SDS011;70990;50.618;7.346;2023-08-07T05:59:21;4.22;;;1.65;;
81544;SDS011;70990;50.618;7.346;2023-08-07T06:01:47;9.00;;;2.45;;
81544;SDS011;70990;50.618;7.346;2023-08-07T06:04:13;8.65;;;1.60;;
81544;SDS011;70990;50.618;7.346;2023-08-07T06:06:40;5.78;;;1.73;;
81544;SDS011;70990;50.618;7.346;2023-08-07T06:09:07;9.02;;;2.10;;
81544;SDS011;70990;50.618;7.346;2023-08-07T06:11:34;8.98;;;2.22;;
81544;SDS011;70990;50.618;7.346;2023-08-07T06:14:01;8.13;;;1.73;;
81544;SDS011;70990;50.618;7.346;2023-08-07T06:16:27;6.63;;;1.67;;
81544;SDS011;70990;50.618;7.346;2023-08-07T06:18:54;7.18;;;1.80;;
81544;SDS011;70990;50.618;7.346;2023-08-07T06:21:21;8.98;;;1.95;;
81544;SDS011;70990;50.618;7.346;2023-08-07T06:23:47;9.65;;;2.00;;
81544;SDS011;70990;50.618;7.346;2023-08-07T06:26:16;7.35;;;1.85;;
81544;SDS011;70990;50.618;7.346;2023-08-07T06:28:43;7.90;;;1.83;;
81544;SDS011;70990;50.618;7.346;2023-08-07T06:31:10;6.40;;;2.15;;
81544;SDS011;70990;50.618;7.346;2023-08-07T06:33:37;5.88;;;2.17;;
81544;SDS011;70990;50.618;7.346;2023-08-07T06:36:04;11.32;;;2.20;;
81544;SDS011;70990;50.618;7.346;2023-08-07T06:38:32;6.32;;;1.88;;
81544;SDS011;70990;50.618;7.346;2023-08-07T06:40:59;6.75;;;2.03;;
81544;SDS011;70990;50.618;7.346;2023-08-07T06:43:25;5.18;;;1.90;;
81544;SDS011;70990;50.618;7.346;2023-08-07T06:45:53;6.07;;;2.10;;
81544;SDS011;70990;50.618;7.346;2023-08-07T06:48:20;9.63;;;2.45;;
81544;SDS011;70990;50.618;7.346;2023-08-07T06:50:48;7.78;;;1.50;;
81544;SDS011;70990;50.618;7.346;2023-08-07T06:53:15;6.53;;;1.95;;
81544;SDS011;70990;50.618;7.346;2023-08-07T06:55:42;10.25;;;2.33;;
81544;SDS011;70990;50.618;7.346;2023-08-07T06:58:09;7.60;;;1.98;;
81544;SDS011;70990;50.618;7.346;2023-08-07T07:00:36;10.30;;;2.15;;
81544;SDS011;70990;50.618;7.346;2023-08-07T07:03:03;8.40;;;1.80;;
81544;SDS011;70990;50.618;7.346;2023-08-07T07:05:31;7.28;;;1.70;;
81544;SDS011;70990;50.618;7.346;2023-08-07T07:07:58;6.57;;;1.88;;
81544;SDS011;70990;50.618;7.346;2023-08-07T07:10:25;6.07;;;1.80;;
81544;SDS011;70990;50.618;7.346;2023-08-07T07:12:51;5.00;;;1.80;;
81544;SDS011;70990;50.618;7.346;2023-08-07T07:15:18;7.45;;;1.45;;
81544;SDS011;70990;50.618;7.346;2023-08-07T07:17:44;5.82;;;2.10;;
81544;SDS011;70990;50.618;7.346;2023-08-07T07:20:11;5.57;;;1.48;;
81544;SDS011;70990;50.618;7.346;2023-08-07T07:22:37;6.05;;;1.70;;
81544;SDS011;70990;50.618;7.346;2023-08-07T07:25:04;4.80;;;1.58;;
81544;SDS011;70990;50.618;7.346;2023-08-07T07:27:31;5.78;;;1.85;;
81544;SDS011;70990;50.618;7.346;2023-08-07T07:29:58;5.70;;;1.40;;
81544;SDS011;70990;50.618;7.346;2023-08-07T07:32:28;6.30;;;1.70;;
81544;SDS011;70990;50.618;7.346;2023-08-07T07:34:54;6.30;;;1.42;;
81544;SDS011;70990;50.618;7.346;2023-08-07T07:37:21;6.03;;;1.42;;
81544;SDS011;70990;50.618;7.346;2023-08-07T07:39:48;4.97;;;2.25;;
81544;SDS011;70990;50.618;7.346;2023-08-07T07:42:14;4.47;;;1.50;;
81544;SDS011;70990;50.618;7.346;2023-08-07T07:44:41;4.20;;;1.67;;
81544;SDS011;70990;50.618;7.346;2023-08-07T07:47:07;4.97;;;1.48;;
81544;SDS011;70990;50.618;7.346;2023-08-07T07:49:38;4.82;;;1.60;;
81544;SDS011;70990;50.618;7.346;2023-08-07T07:52:05;6.47;;;1.30;;
81544;SDS011;70990;50.618;7.346;2023-08-07T07:54:32;5.55;;;1.40;;
81544;SDS011;70990;50.618;7.346;2023-08-07T07:56:58;5.80;;;1.75;;
81544;SDS011;70990;50.618;7.346;2023-08-07T07:59:25;5.05;;;1.77;;
81544;SDS011;70990;50.618;7.346;2023-08-07T08:01:52;4.45;;;1.40;;
81544;SDS011;70990;50.618;7.346;2023-08-07T08:04:19;7.35;;;2.25;;
81544;SDS011;70990;50.618;7.346;2023-08-07T08:06:45;5.25;;;1.60;;
81544;SDS011;70990;50.618;7.346;2023-08-07T08:09:12;4.20;;;1.20;;
81544;SDS011;70990;50.618;7.346;2023-08-07T08:11:39;7.32;;;2.00;;
81544;SDS011;70990;50.618;7.346;2023-08-07T08:14:05;4.38;;;1.38;;
81544;SDS011;70990;50.618;7.346;2023-08-07T08:16:33;5.55;;;1.73;;
81544;SDS011;70990;50.618;7.346;2023-08-07T08:19:00;6.43;;;2.03;;
81544;SDS011;70990;50.618;7.346;2023-08-07T08:21:26;5.90;;;1.85;;
81544;SDS011;70990;50.618;7.346;2023-08-07T08:23:56;5.32;;;2.00;;
81544;SDS011;70990;50.618;7.346;2023-08-07T08:26:22;9.23;;;1.80;;
81544;SDS011;70990;50.618;7.346;2023-08-07T08:28:49;8.63;;;2.03;;
81544;SDS011;70990;50.618;7.346;2023-08-07T08:31:15;5.03;;;1.88;;
81544;SDS011;70990;50.618;7.346;2023-08-07T08:33:42;11.73;;;1.92;;
81544;SDS011;70990;50.618;7.346;2023-08-07T08:36:08;6.85;;;1.95;;
81544;SDS011;70990;50.618;7.346;2023-08-07T08:38:35;11.85;;;2.17;;
81544;SDS011;70990;50.618;7.346;2023-08-07T08:41:02;6.63;;;1.85;;
81544;SDS011;70990;50.618;7.346;2023-08-07T08:43:34;7.28;;;2.10;;
81544;SDS011;70990;50.618;7.346;2023-08-07T08:46:01;6.05;;;2.30;;
81544;SDS011;70990;50.618;7.346;2023-08-07T08:48:27;7.28;;;2.20;;
81544;SDS011;70990;50.618;7.346;2023-08-07T08:51:00;10.27;;;2.40;;
81544;SDS011;70990;50.618;7.346;2023-08-07T08:53:28;9.23;;;2.42;;
81544;SDS011;70990;50.618;7.346;2023-08-07T08:55:55;7.25;;;2.00;;
81544;SDS011;70990;50.618;7.346;2023-08-07T08:58:21;11.27;;;2.30;;
81544;SDS011;70990;50.618;7.346;2023-08-07T09:00:49;10.95;;;2.67;;
81544;SDS011;70990;50.618;7.346;2023-08-07T09:03:17;7.38;;;1.88;;
81544;SDS011;70990;50.618;7.346;2023-08-07T09:05:45;7.35;;;2.15;;
81544;SDS011;70990;50.618;7.346;2023-08-07T09:08:13;7.13;;;2.20;;
81544;SDS011;70990;50.618;7.346;2023-08-07T09:10:40;7.88;;;2.47;;
81544;SDS011;70990;50.618;7.346;2023-08-07T09:13:09;6.38;;;2.00;;
81544;SDS011;70990;50.618;7.346;2023-08-07T09:15:40;5.38;;;1.75;;
81544;SDS011;70990;50.618;7.346;2023-08-07T09:18:07;8.68;;;2.22;;
81544;SDS011;70990;50.618;7.346;2023-08-07T09:20:35;6.82;;;1.65;;
81544;SDS011;70990;50.618;7.346;2023-08-07T09:23:03;10.43;;;2.25;;
81544;SDS011;70990;50.618;7.346;2023-08-07T09:25:29;6.93;;;1.83;;
81544;SDS011;70990;50.618;7.346;2023-08-07T09:27:57;7.97;;;2.00;;
81544;SDS011;70990;50.618;7.346;2023-08-07T09:30:27;8.30;;;2.88;;
81544;SDS011;70990;50.618;7.346;2023-08-07T09:32:59;9.43;;;2.20;;
81544;SDS011;70990;50.618;7.346;2023-08-07T09:35:27;6.82;;;1.73;;
81544;SDS011;70990;50.618;7.346;2023-08-07T09:37:56;7.50;;;2.58;;
81544;SDS011;70990;50.618;7.346;2023-08-07T09:40:23;8.35;;;1.98;;
81544;SDS011;70990;50.618;7.346;2023-08-07T09:42:52;5.40;;;1.90;;
81544;SDS011;70990;50.618;7.346;2023-08-07T09:45:23;9.73;;;1.90;;
81544;SDS011;70990;50.618;7.346;2023-08-07T09:50:24;5.93;;;1.80;;
81544;SDS011;70990;50.618;7.346;2023-08-07T09:52:51;7.85;;;1.85;;
81544;SDS011;70990;50.618;7.346;2023-08-07T09:55:19;8.30;;;1.80;;
81544;SDS011;70990;50.618;7.346;2023-08-07T09:57:45;5.85;;;1.38;;
81544;SDS011;70990;50.618;7.346;2023-08-07T10:00:12;5.78;;;1.52;;
81544;SDS011;70990;50.618;7.346;2023-08-07T10:02:41;6.97;;;1.65;;
81544;SDS011;70990;50.618;7.346;2023-08-07T10:05:09;9.88;;;1.77;;
81544;SDS011;70990;50.618;7.346;2023-08-07T10:07:39;6.10;;;1.90;;
81544;SDS011;70990;50.618;7.346;2023-08-07T10:10:07;7.85;;;1.75;;
81544;SDS011;70990;50.618;7.346;2023-08-07T10:12:34;6.53;;;1.50;;
81544;SDS011;70990;50.618;7.346;2023-08-07T10:15:02;7.38;;;1.80;;
81544;SDS011;70990;50.618;7.346;2023-08-07T10:17:30;9.98;;;2.33;;
81544;SDS011;70990;50.618;7.346;2023-08-07T10:19:58;11.00;;;2.10;;
81544;SDS011;70990;50.618;7.346;2023-08-07T10:22:25;6.57;;;1.67;;
81544;SDS011;70990;50.618;7.346;2023-08-07T10:24:53;4.78;;;1.73;;
81544;SDS011;70990;50.618;7.346;2023-08-07T10:27:22;7.38;;;2.03;;
81544;SDS011;70990;50.618;7.346;2023-08-07T10:29:50;7.93;;;1.90;;
81544;SDS011;70990;50.618;7.346;2023-08-07T10:32:20;9.45;;;2.33;;
81544;SDS011;70990;50.618;7.346;2023-08-07T10:34:51;5.85;;;1.75;;
81544;SDS011;70990;50.618;7.346;2023-08-07T10:38:04;9.95;;;2.30;;
81544;SDS011;70990;50.618;7.346;2023-08-07T10:40:11;5.47;;;1.77;;
81544;SDS011;70990;50.618;7.346;2023-08-07T10:45:20;8.50;;;2.03;;
81544;SDS011;70990;50.618;7.346;2023-08-07T10:50:28;7.53;;;1.77;;
81544;SDS011;70990;50.618;7.346;2023-08-07T10:52:55;3.90;;;1.63;;
81544;SDS011;70990;50.618;7.346;2023-08-07T10:55:22;7.75;;;2.08;;
81544;SDS011;70990;50.618;7.346;2023-08-07T10:57:48;7.10;;;2.10;;
81544;SDS011;70990;50.618;7.346;2023-08-07T11:00:15;5.93;;;2.20;;
81544;SDS011;70990;50.618;7.346;2023-08-07T11:02:41;11.85;;;2.50;;
81544;SDS011;70990;50.618;7.346;2023-08-07T11:05:08;7.38;;;2.08;;
81544;SDS011;70990;50.618;7.346;2023-08-07T11:07:35;6.57;;;1.83;;
81544;SDS011;70990;50.618;7.346;2023-08-07T11:10:06;6.10;;;1.77;;
81544;SDS011;70990;50.618;7.346;2023-08-07T11:12:33;7.57;;;2.25;;
81544;SDS011;70990;50.618;7.346;2023-08-07T11:14:59;6.80;;;1.65;;
81544;SDS011;70990;50.618;7.346;2023-08-07T11:17:26;4.10;;;1.67;;
81544;SDS011;70990;50.618;7.346;2023-08-07T11:19:54;7.80;;;1.95;;
81544;SDS011;70990;50.618;7.346;2023-08-07T11:22:22;7.65;;;1.40;;
81544;SDS011;70990;50.618;7.346;2023-08-07T11:24:50;9.50;;;1.92;;
81544;SDS011;70990;50.618;7.346;2023-08-07T11:27:17;8.00;;;2.10;;
81544;SDS011;70990;50.618;7.346;2023-08-07T11:29:49;7.57;;;1.85;;
81544;SDS011;70990;50.618;7.346;2023-08-07T11:32:16;6.15;;;2.05;;
81544;SDS011;70990;50.618;7.346;2023-08-07T11:34:50;5.03;;;1.40;;
81544;SDS011;70990;50.618;7.346;2023-08-07T11:37:17;6.35;;;1.67;;
81544;SDS011;70990;50.618;7.346;2023-08-07T11:39:44;4.68;;;1.67;;
81544;SDS011;70990;50.618;7.346;2023-08-07T11:42:11;6.45;;;1.73;;
81544;SDS011;70990;50.618;7.346;2023-08-07T11:44:37;6.43;;;1.90;;
81544;SDS011;70990;50.618;7.346;2023-08-07T11:47:04;7.60;;;2.10;;
81544;SDS011;70990;50.618;7.346;2023-08-07T11:49:31;4.70;;;1.90;;
81544;SDS011;70990;50.618;7.346;2023-08-07T11:51:58;6.93;;;1.80;;
81544;SDS011;70990;50.618;7.346;2023-08-07T11:54:24;5.68;;;1.67;;
81544;SDS011;70990;50.618;7.346;2023-08-07T11:56:54;4.22;;;1.70;;
81544;SDS011;70990;50.618;7.346;2023-08-07T11:59:21;7.03;;;1.73;;
81544;SDS011;70990;50.618;7.346;2023-08-07T12:01:47;8.52;;;2.22;;
81544;SDS011;70990;50.618;7.346;2023-08-07T12:04:14;8.73;;;1.77;;
81544;SDS011;70990;50.618;7.346;2023-08-07T12:06:52;5.85;;;1.25;;
81544;SDS011;70990;50.618;7.346;2023-08-07T12:09:20;7.55;;;1.42;;
81544;SDS011;70990;50.618;7.346;2023-08-07T12:11:47;5.65;;;1.48;;
81544;SDS011;70990;50.618;7.346;2023-08-07T12:14:13;4.80;;;1.40;;
81544;SDS011;70990;50.618;7.346;2023-08-07T12:16:43;8.00;;;1.98;;
81544;SDS011;70990;50.618;7.346;2023-08-07T12:19:10;4.13;;;1.50;;
81544;SDS011;70990;50.618;7.346;2023-08-07T12:21:37;5.93;;;1.55;;
81544;SDS011;70990;50.618;7.346;2023-08-07T12:24:04;8.77;;;1.52;;
81544;SDS011;70990;50.618;7.346;2023-08-07T12:26:33;6.85;;;1.63;;
81544;SDS011;70990;50.618;7.346;2023-08-07T12:28:59;3.42;;;1.30;;
81544;SDS011;70990;50.618;7.346;2023-08-07T12:31:26;6.13;;;1.83;;
81544;SDS011;70990;50.618;7.346;2023-08-07T12:33:53;9.73;;;2.10;;
81544;SDS011;70990;50.618;7.346;2023-08-07T12:36:20;4.53;;;1.65;;
81544;SDS011;70990;50.618;7.346;2023-08-07T12:38:47;7.20;;;1.75;;
81544;SDS011;70990;50.618;7.346;2023-08-07T12:41:14;4.68;;;1.30;;
81544;SDS011;70990;50.618;7.346;2023-08-07T12:43:44;2.53;;;0.98;;
81544;SDS011;70990;50.618;7.346;2023-08-07T12:46:10;4.38;;;1.30;;
81544;SDS011;70990;50.618;7.346;2023-08-07T12:48:40;4.80;;;1.70;;
81544;SDS011;70990;50.618;7.346;2023-08-07T12:51:06;6.70;;;2.05;;
81544;SDS011;70990;50.618;7.346;2023-08-07T12:53:33;6.53;;;1.67;;
81544;SDS011;70990;50.618;7.346;2023-08-07T12:56:00;3.40;;;1.08;;
81544;SDS011;70990;50.618;7.346;2023-08-07T12:58:26;7.13;;;1.50;;
81544;SDS011;70990;50.618;7.346;2023-08-07T13:00:53;5.70;;;1.30;;
81544;SDS011;70990;50.618;7.346;2023-08-07T13:03:21;4.68;;;1.20;;
81544;SDS011;70990;50.618;7.346;2023-08-07T13:05:48;11.02;;;1.90;;
81544;SDS011;70990;50.618;7.346;2023-08-07T13:08:15;3.25;;;1.13;;
81544;SDS011;70990;50.618;7.346;2023-08-07T13:10:41;4.65;;;1.40;;
81544;SDS011;70990;50.618;7.346;2023-08-07T13:13:08;16.88;;;1.77;;
81544;SDS011;70990;50.618;7.346;2023-08-07T13:15:34;5.22;;;1.35;;
81544;SDS011;70990;50.618;7.346;2023-08-07T13:18:01;5.22;;;1.23;;
81544;SDS011;70990;50.618;7.346;2023-08-07T13:20:28;5.00;;;1.20;;
81544;SDS011;70990;50.618;7.346;2023-08-07T13:22:55;4.15;;;1.40;;
81544;SDS011;70990;50.618;7.346;2023-08-07T13:25:21;4.47;;;1.40;;
81544;SDS011;70990;50.618;7.346;2023-08-07T13:27:48;6.40;;;1.88;;
81544;SDS011;70990;50.618;7.346;2023-08-07T13:30:14;2.63;;;1.17;;
81544;SDS011;70990;50.618;7.346;2023-08-07T13:32:41;4.40;;;1.90;;
81544;SDS011;70990;50.618;7.346;2023-08-07T13:35:09;6.45;;;1.70;;
81544;SDS011;70990;50.618;7.346;2023-08-07T13:37:35;5.78;;;1.73;;
81544;SDS011;70990;50.618;7.346;2023-08-07T13:40:02;5.32;;;1.30;;
81544;SDS011;70990;50.618;7.346;2023-08-07T13:42:28;5.55;;;1.30;;
81544;SDS011;70990;50.618;7.346;2023-08-07T13:44:55;3.17;;;1.20;;
81544;SDS011;70990;50.618;7.346;2023-08-07T13:47:24;5.05;;;1.40;;
81544;SDS011;70990;50.618;7.346;2023-08-07T13:49:51;6.28;;;1.63;;
81544;SDS011;70990;50.618;7.346;2023-08-07T13:52:18;4.82;;;1.63;;
81544;SDS011;70990;50.618;7.346;2023-08-07T13:54:45;6.00;;;1.80;;
81544;SDS011;70990;50.618;7.346;2023-08-07T13:57:11;6.25;;;1.60;;
81544;SDS011;70990;50.618;7.346;2023-08-07T13:59:38;4.25;;;0.95;;
81544;SDS011;70990;50.618;7.346;2023-08-07T14:02:06;4.10;;;1.40;;
81544;SDS011;70990;50.618;7.346;2023-08-07T14:04:33;6.40;;;1.67;;
81544;SDS011;70990;50.618;7.346;2023-08-07T14:06:59;4.32;;;1.30;;
81544;SDS011;70990;50.618;7.346;2023-08-07T14:09:26;8.40;;;1.83;;
81544;SDS011;70990;50.618;7.346;2023-08-07T14:11:53;6.88;;;1.63;;
81544;SDS011;70990;50.618;7.346;2023-08-07T14:14:20;4.63;;;1.30;;
81544;SDS011;70990;50.618;7.346;2023-08-07T14:16:47;4.32;;;1.15;;
81544;SDS011;70990;50.618;7.346;2023-08-07T14:19:14;3.65;;;1.33;;
81544;SDS011;70990;50.618;7.346;2023-08-07T14:21:40;5.63;;;2.17;;
81544;SDS011;70990;50.618;7.346;2023-08-07T14:24:07;7.45;;;2.45;;
81544;SDS011;70990;50.618;7.346;2023-08-07T14:26:33;5.53;;;1.85;;
81544;SDS011;70990;50.618;7.346;2023-08-07T14:29:00;9.65;;;2.67;;
81544;SDS011;70990;50.618;7.346;2023-08-07T14:31:26;7.85;;;2.70;;
81544;SDS011;70990;50.618;7.346;2023-08-07T14:33:53;7.32;;;2.50;;
81544;SDS011;70990;50.618;7.346;2023-08-07T14:36:20;7.53;;;2.25;;
81544;SDS011;70990;50.618;7.346;2023-08-07T14:38:47;7.47;;;1.88;;
81544;SDS011;70990;50.618;7.346;2023-08-07T14:41:14;6.15;;;2.00;;
81544;SDS011;70990;50.618;7.346;2023-08-07T14:43:47;4.68;;;1.80;;
81544;SDS011;70990;50.618;7.346;2023-08-07T14:46:15;6.95;;;1.40;;
81544;SDS011;70990;50.618;7.346;2023-08-07T14:48:42;3.25;;;1.10;;
81544;SDS011;70990;50.618;7.346;2023-08-07T14:51:09;3.63;;;1.50;;
81544;SDS011;70990;50.618;7.346;2023-08-07T14:53:35;5.80;;;1.50;;
81544;SDS011;70990;50.618;7.346;2023-08-07T14:56:02;3.25;;;1.10;;
81544;SDS011;70990;50.618;7.346;2023-08-07T14:58:29;3.88;;;1.30;;
81544;SDS011;70990;50.618;7.346;2023-08-07T15:00:56;4.88;;;1.48;;
81544;SDS011;70990;50.618;7.346;2023-08-07T15:03:22;4.47;;;1.00;;
81544;SDS011;70990;50.618;7.346;2023-08-07T15:05:49;3.22;;;1.20;;